sensor_id;sensor_type;location;lat;lon;timestamp;temperature;humidity
20795;DHT22;28087;-33.874;151.240;2023-04-15T00:01:44;24.00;60.70
20795;DHT22;28087;-33.874;151.240;2023-04-15T00:04:20;24.20;61.70
20795;DHT22;28087;-33.874;151.240;2023-04-15T00:06:55;24.30;58.80
20795;DHT22;28087;-33.874;151.240;2023-04-15T00:09:35;24.50;58.20
20795;DHT22;28087;-33.874;151.240;2023-04-15T00:12:11;24.60;57.40
20795;DHT22;28087;-33.874;151.240;2023-04-15T00:14:46;24.70;57.20
20795;DHT22;28087;-33.874;151.240;2023-04-15T00:17:22;24.80;56.10
20795;DHT22;28087;-33.874;151.240;2023-04-15T00:19:58;25.00;56.70
20795;DHT22;28087;-33.874;151.240;2023-04-15T00:22:34;25.10;57.10
20795;DHT22;28087;-33.874;151.240;2023-04-15T00:25:12;25.10;55.10
20795;DHT22;28087;-33.874;151.240;2023-04-15T00:27:48;25.20;54.90
20795;DHT22;28087;-33.874;151.240;2023-04-15T00:30:23;25.30;54.70
20795;DHT22;28087;-33.874;151.240;2023-04-15T00:32:59;25.50;56.10
20795;DHT22;28087;-33.874;151.240;2023-04-15T00:35:35;25.60;55.40
20795;DHT22;28087;-33.874;151.240;2023-04-15T00:38:11;25.60;55.60
20795;DHT22;28087;-33.874;151.240;2023-04-15T00:40:49;25.80;55.70
20795;DHT22;28087;-33.874;151.240;2023-04-15T00:43:24;25.80;53.40
20795;DHT22;28087;-33.874;151.240;2023-04-15T00:46:01;25.90;51.90
20795;DHT22;28087;-33.874;151.240;2023-04-15T00:48:38;25.90;52.50
20795;DHT22;28087;-33.874;151.240;2023-04-15T00:51:14;25.90;51.80
20795;DHT22;28087;-33.874;151.240;2023-04-15T00:53:49;25.90;54.60
20795;DHT22;28087;-33.874;151.240;2023-04-15T00:56:29;26.10;54.80
20795;DHT22;28087;-33.874;151.240;2023-04-15T00:59:04;26.20;53.10
20795;DHT22;28087;-33.874;151.240;2023-04-15T01:01:41;26.10;53.30
20795;DHT22;28087;-33.874;151.240;2023-04-15T01:04:17;26.00;55.00
20795;DHT22;28087;-33.874;151.240;2023-04-15T01:06:53;25.80;52.80
20795;DHT22;28087;-33.874;151.240;2023-04-15T01:09:28;26.10;53.30
20795;DHT22;28087;-33.874;151.240;2023-04-15T01:12:07;26.20;53.00
20795;DHT22;28087;-33.874;151.240;2023-04-15T01:14:44;26.10;54.20
20795;DHT22;28087;-33.874;151.240;2023-04-15T01:17:20;26.40;52.30
20795;DHT22;28087;-33.874;151.240;2023-04-15T01:19:56;26.40;52.00
20795;DHT22;28087;-33.874;151.240;2023-04-15T01:22:33;26.30;50.50
20795;DHT22;28087;-33.874;151.240;2023-04-15T01:25:12;26.50;50.80
20795;DHT22;28087;-33.874;151.240;2023-04-15T01:27:52;26.50;51.60
20795;DHT22;28087;-33.874;151.240;2023-04-15T01:30:27;26.50;50.50
20795;DHT22;28087;-33.874;151.240;2023-04-15T01:33:04;26.90;51.10
20795;DHT22;28087;-33.874;151.240;2023-04-15T01:35:58;27.20;50.40
20795;DHT22;28087;-33.874;151.240;2023-04-15T01:38:33;27.30;49.10
20795;DHT22;28087;-33.874;151.240;2023-04-15T01:41:08;27.40;50.10
20795;DHT22;28087;-33.874;151.240;2023-04-15T01:43:48;27.30;49.30
20795;DHT22;28087;-33.874;151.240;2023-04-15T01:46:25;27.40;49.40
20795;DHT22;28087;-33.874;151.240;2023-04-15T01:49:03;27.50;48.00
20795;DHT22;28087;-33.874;151.240;2023-04-15T01:51:40;27.50;48.40
20795;DHT22;28087;-33.874;151.240;2023-04-15T01:54:17;27.60;47.60
20795;DHT22;28087;-33.874;151.240;2023-04-15T01:56:55;27.70;47.50
20795;DHT22;28087;-33.874;151.240;2023-04-15T01:59:34;27.70;47.40
20795;DHT22;28087;-33.874;151.240;2023-04-15T02:02:11;27.80;47.10
20795;DHT22;28087;-33.874;151.240;2023-04-15T02:04:48;27.70;46.00
20795;DHT22;28087;-33.874;151.240;2023-04-15T02:07:25;27.70;46.40
20795;DHT22;28087;-33.874;151.240;2023-04-15T02:10:05;27.70;45.70
20795;DHT22;28087;-33.874;151.240;2023-04-15T02:12:44;27.80;47.00
20795;DHT22;28087;-33.874;151.240;2023-04-15T02:15:23;27.90;45.90
20795;DHT22;28087;-33.874;151.240;2023-04-15T02:18:00;28.00;45.40
20795;DHT22;28087;-33.874;151.240;2023-04-15T02:20:37;28.00;45.60
20795;DHT22;28087;-33.874;151.240;2023-04-15T02:23:13;28.00;44.50
20795;DHT22;28087;-33.874;151.240;2023-04-15T02:25:50;27.90;45.60
20795;DHT22;28087;-33.874;151.240;2023-04-15T02:28:27;27.80;46.10
20795;DHT22;28087;-33.874;151.240;2023-04-15T02:31:08;27.70;46.60
20795;DHT22;28087;-33.874;151.240;2023-04-15T02:33:44;27.50;47.90
20795;DHT22;28087;-33.874;151.240;2023-04-15T02:36:22;27.50;49.50
20795;DHT22;28087;-33.874;151.240;2023-04-15T02:38:59;27.60;50.10
20795;DHT22;28087;-33.874;151.240;2023-04-15T02:41:37;27.40;50.10
20795;DHT22;28087;-33.874;151.240;2023-04-15T02:44:16;27.20;51.10
20795;DHT22;28087;-33.874;151.240;2023-04-15T02:46:57;27.50;51.80
20795;DHT22;28087;-33.874;151.240;2023-04-15T02:49:33;27.30;52.10
20795;DHT22;28087;-33.874;151.240;2023-04-15T02:52:10;27.20;52.20
20795;DHT22;28087;-33.874;151.240;2023-04-15T02:54:46;27.10;52.20
20795;DHT22;28087;-33.874;151.240;2023-04-15T02:57:23;27.10;52.30
20795;DHT22;28087;-33.874;151.240;2023-04-15T03:00:03;27.10;52.40
20795;DHT22;28087;-33.874;151.240;2023-04-15T03:02:47;27.00;53.00
20795;DHT22;28087;-33.874;151.240;2023-04-15T03:05:28;26.80;54.00
20795;DHT22;28087;-33.874;151.240;2023-04-15T03:08:07;26.60;54.50
20795;DHT22;28087;-33.874;151.240;2023-04-15T03:10:44;26.50;54.70
20795;DHT22;28087;-33.874;151.240;2023-04-15T03:13:20;26.50;54.70
20795;DHT22;28087;-33.874;151.240;2023-04-15T03:15:58;26.40;55.00
20795;DHT22;28087;-33.874;151.240;2023-04-15T03:18:38;26.10;55.70
20795;DHT22;28087;-33.874;151.240;2023-04-15T03:21:16;26.20;55.90
20795;DHT22;28087;-33.874;151.240;2023-04-15T03:23:52;26.10;55.70
20795;DHT22;28087;-33.874;151.240;2023-04-15T03:26:30;26.30;56.00
20795;DHT22;28087;-33.874;151.240;2023-04-15T03:29:14;26.20;56.50
20795;DHT22;28087;-33.874;151.240;2023-04-15T03:31:51;26.20;55.90
20795;DHT22;28087;-33.874;151.240;2023-04-15T03:34:36;26.10;56.10
20795;DHT22;28087;-33.874;151.240;2023-04-15T03:37:12;26.30;56.00
20795;DHT22;28087;-33.874;151.240;2023-04-15T03:39:49;26.10;57.10
20795;DHT22;28087;-33.874;151.240;2023-04-15T03:42:26;26.10;57.30
20795;DHT22;28087;-33.874;151.240;2023-04-15T03:45:02;26.30;57.30
20795;DHT22;28087;-33.874;151.240;2023-04-15T03:47:39;26.10;57.60
20795;DHT22;28087;-33.874;151.240;2023-04-15T03:50:18;26.00;58.40
20795;DHT22;28087;-33.874;151.240;2023-04-15T03:52:54;25.90;58.30
20795;DHT22;28087;-33.874;151.240;2023-04-15T03:55:31;25.70;59.10
20795;DHT22;28087;-33.874;151.240;2023-04-15T03:58:07;25.80;59.20
20795;DHT22;28087;-33.874;151.240;2023-04-15T04:00:46;25.70;59.70
20795;DHT22;28087;-33.874;151.240;2023-04-15T04:03:22;25.60;59.40
20795;DHT22;28087;-33.874;151.240;2023-04-15T04:06:02;25.70;58.80
20795;DHT22;28087;-33.874;151.240;2023-04-15T04:08:39;25.80;58.90
20795;DHT22;28087;-33.874;151.240;2023-04-15T04:11:16;25.80;58.60
20795;DHT22;28087;-33.874;151.240;2023-04-15T04:13:52;26.00;59.00
20795;DHT22;28087;-33.874;151.240;2023-04-15T04:16:29;25.90;58.70
20795;DHT22;28087;-33.874;151.240;2023-04-15T04:19:05;25.90;58.30
20795;DHT22;28087;-33.874;151.240;2023-04-15T04:21:45;25.80;59.40
20795;DHT22;28087;-33.874;151.240;2023-04-15T04:24:21;25.60;59.90
20795;DHT22;28087;-33.874;151.240;2023-04-15T04:26:58;25.30;60.70
20795;DHT22;28087;-33.874;151.240;2023-04-15T04:29:36;25.10;61.00
20795;DHT22;28087;-33.874;151.240;2023-04-15T04:32:13;24.90;60.90
20795;DHT22;28087;-33.874;151.240;2023-04-15T04:34:49;24.70;62.00
20795;DHT22;28087;-33.874;151.240;2023-04-15T04:37:28;24.50;62.50
20795;DHT22;28087;-33.874;151.240;2023-04-15T04:40:05;24.50;62.40
20795;DHT22;28087;-33.874;151.240;2023-04-15T04:42:43;24.60;62.20
20795;DHT22;28087;-33.874;151.240;2023-04-15T04:45:19;24.40;63.50
20795;DHT22;28087;-33.874;151.240;2023-04-15T04:47:56;24.40;63.80
20795;DHT22;28087;-33.874;151.240;2023-04-15T04:50:32;24.50;63.30
20795;DHT22;28087;-33.874;151.240;2023-04-15T04:53:12;24.60;62.70
20795;DHT22;28087;-33.874;151.240;2023-04-15T04:55:48;24.70;62.30
20795;DHT22;28087;-33.874;151.240;2023-04-15T04:58:24;24.70;62.60
20795;DHT22;28087;-33.874;151.240;2023-04-15T05:01:01;24.80;62.70
20795;DHT22;28087;-33.874;151.240;2023-04-15T05:03:38;25.00;62.30
20795;DHT22;28087;-33.874;151.240;2023-04-15T05:06:16;24.80;62.80
20795;DHT22;28087;-33.874;151.240;2023-04-15T05:08:55;24.60;63.40
20795;DHT22;28087;-33.874;151.240;2023-04-15T05:11:32;24.70;63.20
20795;DHT22;28087;-33.874;151.240;2023-04-15T05:14:09;24.50;63.90
20795;DHT22;28087;-33.874;151.240;2023-04-15T05:16:45;24.40;64.20
20795;DHT22;28087;-33.874;151.240;2023-04-15T05:19:22;24.40;64.50
20795;DHT22;28087;-33.874;151.240;2023-04-15T05:21:58;24.20;65.70
20795;DHT22;28087;-33.874;151.240;2023-04-15T05:24:38;24.20;65.70
20795;DHT22;28087;-33.874;151.240;2023-04-15T05:27:15;24.00;65.90
20795;DHT22;28087;-33.874;151.240;2023-04-15T05:29:54;24.10;66.10
20795;DHT22;28087;-33.874;151.240;2023-04-15T05:32:31;24.00;66.40
20795;DHT22;28087;-33.874;151.240;2023-04-15T05:35:08;24.00;67.00
20795;DHT22;28087;-33.874;151.240;2023-04-15T05:37:45;23.80;67.10
20795;DHT22;28087;-33.874;151.240;2023-04-15T05:40:24;23.80;67.70
20795;DHT22;28087;-33.874;151.240;2023-04-15T05:43:00;23.80;67.40
20795;DHT22;28087;-33.874;151.240;2023-04-15T05:45:37;23.70;68.00
20795;DHT22;28087;-33.874;151.240;2023-04-15T05:48:14;23.80;67.90
20795;DHT22;28087;-33.874;151.240;2023-04-15T05:50:50;23.80;68.00
20795;DHT22;28087;-33.874;151.240;2023-04-15T05:53:29;23.70;68.80
20795;DHT22;28087;-33.874;151.240;2023-04-15T05:56:09;23.70;68.60
20795;DHT22;28087;-33.874;151.240;2023-04-15T05:58:46;23.70;68.40
20795;DHT22;28087;-33.874;151.240;2023-04-15T06:01:24;23.70;68.60
20795;DHT22;28087;-33.874;151.240;2023-04-15T06:04:03;23.80;68.60
20795;DHT22;28087;-33.874;151.240;2023-04-15T06:06:43;23.80;67.90
20795;DHT22;28087;-33.874;151.240;2023-04-15T06:09:20;23.80;67.50
20795;DHT22;28087;-33.874;151.240;2023-04-15T06:11:59;23.70;68.40
20795;DHT22;28087;-33.874;151.240;2023-04-15T06:14:36;23.60;69.40
20795;DHT22;28087;-33.874;151.240;2023-04-15T06:17:13;23.50;70.10
20795;DHT22;28087;-33.874;151.240;2023-04-15T06:19:50;23.50;69.90
20795;DHT22;28087;-33.874;151.240;2023-04-15T06:22:28;23.50;70.00
20795;DHT22;28087;-33.874;151.240;2023-04-15T06:25:05;23.50;70.30
20795;DHT22;28087;-33.874;151.240;2023-04-15T06:27:45;23.40;70.40
20795;DHT22;28087;-33.874;151.240;2023-04-15T06:30:23;23.40;70.40
20795;DHT22;28087;-33.874;151.240;2023-04-15T06:32:59;23.40;70.60
20795;DHT22;28087;-33.874;151.240;2023-04-15T06:35:37;23.40;70.40
20795;DHT22;28087;-33.874;151.240;2023-04-15T06:38:14;23.30;70.80
20795;DHT22;28087;-33.874;151.240;2023-04-15T06:40:51;23.40;70.90
20795;DHT22;28087;-33.874;151.240;2023-04-15T06:43:32;23.30;71.40
20795;DHT22;28087;-33.874;151.240;2023-04-15T06:46:09;23.30;71.80
20795;DHT22;28087;-33.874;151.240;2023-04-15T06:48:46;23.20;72.00
20795;DHT22;28087;-33.874;151.240;2023-04-15T06:51:23;23.30;71.80
20795;DHT22;28087;-33.874;151.240;2023-04-15T06:53:59;23.30;72.20
20795;DHT22;28087;-33.874;151.240;2023-04-15T06:56:38;23.30;72.10
20795;DHT22;28087;-33.874;151.240;2023-04-15T06:59:18;23.20;72.40
20795;DHT22;28087;-33.874;151.240;2023-04-15T07:01:56;23.20;73.10
20795;DHT22;28087;-33.874;151.240;2023-04-15T07:04:36;23.20;73.30
20795;DHT22;28087;-33.874;151.240;2023-04-15T07:07:12;23.10;73.10
20795;DHT22;28087;-33.874;151.240;2023-04-15T07:09:50;23.20;73.10
20795;DHT22;28087;-33.874;151.240;2023-04-15T07:12:26;23.20;73.30
20795;DHT22;28087;-33.874;151.240;2023-04-15T07:15:05;23.20;73.50
20795;DHT22;28087;-33.874;151.240;2023-04-15T07:17:42;23.20;73.60
20795;DHT22;28087;-33.874;151.240;2023-04-15T07:20:19;23.20;73.70
20795;DHT22;28087;-33.874;151.240;2023-04-15T07:22:55;23.20;73.60
20795;DHT22;28087;-33.874;151.240;2023-04-15T07:25:34;23.20;73.10
20795;DHT22;28087;-33.874;151.240;2023-04-15T07:28:10;23.20;73.00
20795;DHT22;28087;-33.874;151.240;2023-04-15T07:30:50;23.20;73.00
20795;DHT22;28087;-33.874;151.240;2023-04-15T07:33:26;23.20;72.70
20795;DHT22;28087;-33.874;151.240;2023-04-15T07:36:04;23.20;72.60
20795;DHT22;28087;-33.874;151.240;2023-04-15T07:38:41;23.10;72.60
20795;DHT22;28087;-33.874;151.240;2023-04-15T07:41:18;23.20;72.70
20795;DHT22;28087;-33.874;151.240;2023-04-15T07:43:55;23.20;72.70
20795;DHT22;28087;-33.874;151.240;2023-04-15T07:46:33;23.10;72.30
20795;DHT22;28087;-33.874;151.240;2023-04-15T07:49:10;23.30;72.40
20795;DHT22;28087;-33.874;151.240;2023-04-15T07:51:49;23.20;72.50
20795;DHT22;28087;-33.874;151.240;2023-04-15T07:54:28;23.20;72.90
20795;DHT22;28087;-33.874;151.240;2023-04-15T07:57:04;23.20;72.80
20795;DHT22;28087;-33.874;151.240;2023-04-15T07:59:41;23.20;72.90
20795;DHT22;28087;-33.874;151.240;2023-04-15T08:02:21;23.20;73.10
20795;DHT22;28087;-33.874;151.240;2023-04-15T08:04:58;23.10;73.60
20795;DHT22;28087;-33.874;151.240;2023-04-15T08:07:37;23.10;73.60
20795;DHT22;28087;-33.874;151.240;2023-04-15T08:10:16;23.10;74.10
20795;DHT22;28087;-33.874;151.240;2023-04-15T08:12:55;23.20;74.10
20795;DHT22;28087;-33.874;151.240;2023-04-15T08:15:31;23.00;74.50
20795;DHT22;28087;-33.874;151.240;2023-04-15T08:18:10;23.10;74.60
20795;DHT22;28087;-33.874;151.240;2023-04-15T08:20:47;23.10;74.70
20795;DHT22;28087;-33.874;151.240;2023-04-15T08:23:24;23.10;74.90
20795;DHT22;28087;-33.874;151.240;2023-04-15T08:26:00;23.10;74.90
20795;DHT22;28087;-33.874;151.240;2023-04-15T08:28:37;23.00;75.00
20795;DHT22;28087;-33.874;151.240;2023-04-15T08:31:16;23.00;75.00
20795;DHT22;28087;-33.874;151.240;2023-04-15T08:33:57;23.00;74.90
20795;DHT22;28087;-33.874;151.240;2023-04-15T08:36:33;23.00;74.90
20795;DHT22;28087;-33.874;151.240;2023-04-15T08:39:09;23.00;74.90
20795;DHT22;28087;-33.874;151.240;2023-04-15T08:41:46;23.10;75.00
20795;DHT22;28087;-33.874;151.240;2023-04-15T08:44:24;23.00;75.10
20795;DHT22;28087;-33.874;151.240;2023-04-15T08:47:02;23.10;74.90
20795;DHT22;28087;-33.874;151.240;2023-04-15T08:49:43;23.00;74.80
20795;DHT22;28087;-33.874;151.240;2023-04-15T08:52:21;23.10;74.60
20795;DHT22;28087;-33.874;151.240;2023-04-15T08:55:01;23.00;74.30
20795;DHT22;28087;-33.874;151.240;2023-04-15T08:57:38;22.90;74.10
20795;DHT22;28087;-33.874;151.240;2023-04-15T09:00:15;23.00;73.90
20795;DHT22;28087;-33.874;151.240;2023-04-15T09:02:51;22.90;73.70
20795;DHT22;28087;-33.874;151.240;2023-04-15T09:05:33;22.90;73.90
20795;DHT22;28087;-33.874;151.240;2023-04-15T09:08:10;22.90;73.80
20795;DHT22;28087;-33.874;151.240;2023-04-15T09:10:47;22.90;74.00
20795;DHT22;28087;-33.874;151.240;2023-04-15T09:13:23;22.90;74.00
20795;DHT22;28087;-33.874;151.240;2023-04-15T09:16:02;22.90;74.10
20795;DHT22;28087;-33.874;151.240;2023-04-15T09:18:40;23.00;74.00
20795;DHT22;28087;-33.874;151.240;2023-04-15T09:21:19;22.80;73.70
20795;DHT22;28087;-33.874;151.240;2023-04-15T09:23:57;22.90;73.90
20795;DHT22;28087;-33.874;151.240;2023-04-15T09:26:36;22.90;73.60
20795;DHT22;28087;-33.874;151.240;2023-04-15T09:29:14;22.80;73.80
20795;DHT22;28087;-33.874;151.240;2023-04-15T09:31:51;22.90;73.90
20795;DHT22;28087;-33.874;151.240;2023-04-15T09:34:36;22.80;74.00
20795;DHT22;28087;-33.874;151.240;2023-04-15T09:37:16;22.80;74.10
20795;DHT22;28087;-33.874;151.240;2023-04-15T09:40:03;22.80;74.00
20795;DHT22;28087;-33.874;151.240;2023-04-15T09:42:57;22.90;74.00
20795;DHT22;28087;-33.874;151.240;2023-04-15T09:45:35;22.80;74.00
20795;DHT22;28087;-33.874;151.240;2023-04-15T09:48:18;22.80;74.10
20795;DHT22;28087;-33.874;151.240;2023-04-15T09:50:58;22.70;74.10
20795;DHT22;28087;-33.874;151.240;2023-04-15T09:53:37;22.70;74.30
20795;DHT22;28087;-33.874;151.240;2023-04-15T09:56:13;22.70;74.40
20795;DHT22;28087;-33.874;151.240;2023-04-15T09:58:57;22.70;74.40
20795;DHT22;28087;-33.874;151.240;2023-04-15T10:01:35;22.80;74.40
20795;DHT22;28087;-33.874;151.240;2023-04-15T10:04:12;22.70;74.20
20795;DHT22;28087;-33.874;151.240;2023-04-15T10:06:50;22.70;74.10
20795;DHT22;28087;-33.874;151.240;2023-04-15T10:09:29;22.60;74.10
20795;DHT22;28087;-33.874;151.240;2023-04-15T10:12:07;22.60;74.10
20795;DHT22;28087;-33.874;151.240;2023-04-15T10:14:44;22.70;74.00
20795;DHT22;28087;-33.874;151.240;2023-04-15T10:17:25;22.60;73.40
20795;DHT22;28087;-33.874;151.240;2023-04-15T10:20:07;22.70;73.20
20795;DHT22;28087;-33.874;151.240;2023-04-15T10:22:47;22.60;72.60
20795;DHT22;28087;-33.874;151.240;2023-04-15T10:25:28;22.60;72.90
20795;DHT22;28087;-33.874;151.240;2023-04-15T10:28:07;22.60;72.50
20795;DHT22;28087;-33.874;151.240;2023-04-15T10:30:44;22.60;72.40
20795;DHT22;28087;-33.874;151.240;2023-04-15T10:33:22;22.50;72.30
20795;DHT22;28087;-33.874;151.240;2023-04-15T10:36:00;22.60;72.30
20795;DHT22;28087;-33.874;151.240;2023-04-15T10:38:38;22.60;72.10
20795;DHT22;28087;-33.874;151.240;2023-04-15T10:41:18;22.50;71.70
20795;DHT22;28087;-33.874;151.240;2023-04-15T10:43:59;22.60;71.20
20795;DHT22;28087;-33.874;151.240;2023-04-15T10:46:37;22.50;71.00
20795;DHT22;28087;-33.874;151.240;2023-04-15T10:49:23;22.50;71.30
20795;DHT22;28087;-33.874;151.240;2023-04-15T10:52:01;22.40;71.10
20795;DHT22;28087;-33.874;151.240;2023-04-15T10:54:38;22.50;70.90
20795;DHT22;28087;-33.874;151.240;2023-04-15T10:57:23;22.50;70.40
20795;DHT22;28087;-33.874;151.240;2023-04-15T11:00:11;22.50;70.30
20795;DHT22;28087;-33.874;151.240;2023-04-15T11:02:51;22.40;69.60
20795;DHT22;28087;-33.874;151.240;2023-04-15T11:05:52;22.50;69.70
20795;DHT22;28087;-33.874;151.240;2023-04-15T11:08:52;22.50;69.40
20795;DHT22;28087;-33.874;151.240;2023-04-15T11:12:06;22.50;69.70
20795;DHT22;28087;-33.874;151.240;2023-04-15T11:14:46;22.40;69.70
20795;DHT22;28087;-33.874;151.240;2023-04-15T11:17:28;22.50;69.60
20795;DHT22;28087;-33.874;151.240;2023-04-15T11:20:13;22.50;69.80
20795;DHT22;28087;-33.874;151.240;2023-04-15T11:22:51;22.50;69.50
20795;DHT22;28087;-33.874;151.240;2023-04-15T11:25:45;22.50;69.40
20795;DHT22;28087;-33.874;151.240;2023-04-15T11:28:25;22.50;69.40
20795;DHT22;28087;-33.874;151.240;2023-04-15T11:31:12;22.60;69.70
20795;DHT22;28087;-33.874;151.240;2023-04-15T11:33:55;22.60;69.90
20795;DHT22;28087;-33.874;151.240;2023-04-15T11:36:32;22.60;69.60
20795;DHT22;28087;-33.874;151.240;2023-04-15T11:39:10;22.50;69.40
20795;DHT22;28087;-33.874;151.240;2023-04-15T11:41:47;22.50;69.50
20795;DHT22;28087;-33.874;151.240;2023-04-15T11:44:24;22.50;69.90
20795;DHT22;28087;-33.874;151.240;2023-04-15T11:47:22;22.50;69.30
20795;DHT22;28087;-33.874;151.240;2023-04-15T11:50:14;22.50;69.40
20795;DHT22;28087;-33.874;151.240;2023-04-15T11:52:56;22.40;69.20
20795;DHT22;28087;-33.874;151.240;2023-04-15T11:55:45;22.50;69.10
20795;DHT22;28087;-33.874;151.240;2023-04-15T11:58:21;22.40;69.40
20795;DHT22;28087;-33.874;151.240;2023-04-15T12:00:58;22.50;68.90
20795;DHT22;28087;-33.874;151.240;2023-04-15T12:03:40;22.50;68.70
20795;DHT22;28087;-33.874;151.240;2023-04-15T12:06:17;22.40;68.90
20795;DHT22;28087;-33.874;151.240;2023-04-15T12:09:07;22.30;68.70
20795;DHT22;28087;-33.874;151.240;2023-04-15T12:11:47;22.30;68.70
20795;DHT22;28087;-33.874;151.240;2023-04-15T12:14:26;22.40;69.00
20795;DHT22;28087;-33.874;151.240;2023-04-15T12:17:04;22.40;68.30
20795;DHT22;28087;-33.874;151.240;2023-04-15T12:19:43;22.40;67.90
20795;DHT22;28087;-33.874;151.240;2023-04-15T12:22:21;22.40;67.70
20795;DHT22;28087;-33.874;151.240;2023-04-15T12:24:56;22.40;68.10
20795;DHT22;28087;-33.874;151.240;2023-04-15T12:27:34;22.40;67.40
20795;DHT22;28087;-33.874;151.240;2023-04-15T12:30:10;22.30;67.80
20795;DHT22;28087;-33.874;151.240;2023-04-15T12:32:46;22.40;67.70
20795;DHT22;28087;-33.874;151.240;2023-04-15T12:35:23;22.50;67.40
20795;DHT22;28087;-33.874;151.240;2023-04-15T12:37:59;22.50;67.60
20795;DHT22;28087;-33.874;151.240;2023-04-15T12:40:35;22.40;67.70
20795;DHT22;28087;-33.874;151.240;2023-04-15T12:43:11;22.50;67.60
20795;DHT22;28087;-33.874;151.240;2023-04-15T12:45:46;22.50;67.70
20795;DHT22;28087;-33.874;151.240;2023-04-15T12:48:22;22.40;67.30
20795;DHT22;28087;-33.874;151.240;2023-04-15T12:50:59;22.50;67.00
20795;DHT22;28087;-33.874;151.240;2023-04-15T12:53:38;22.50;66.80
20795;DHT22;28087;-33.874;151.240;2023-04-15T12:56:18;22.50;66.80
20795;DHT22;28087;-33.874;151.240;2023-04-15T12:58:55;22.40;66.60
20795;DHT22;28087;-33.874;151.240;2023-04-15T13:01:32;22.50;66.40
20795;DHT22;28087;-33.874;151.240;2023-04-15T13:04:09;22.50;66.60
20795;DHT22;28087;-33.874;151.240;2023-04-15T13:06:47;22.40;66.50
20795;DHT22;28087;-33.874;151.240;2023-04-15T13:09:24;22.40;66.20
20795;DHT22;28087;-33.874;151.240;2023-04-15T13:11:59;22.50;66.10
20795;DHT22;28087;-33.874;151.240;2023-04-15T13:14:36;22.40;66.20
20795;DHT22;28087;-33.874;151.240;2023-04-15T13:17:17;22.50;66.20
20795;DHT22;28087;-33.874;151.240;2023-04-15T13:19:53;22.40;65.60
20795;DHT22;28087;-33.874;151.240;2023-04-15T13:22:30;22.40;65.50
20795;DHT22;28087;-33.874;151.240;2023-04-15T13:25:06;22.40;66.10
20795;DHT22;28087;-33.874;151.240;2023-04-15T13:27:41;22.50;65.80
20795;DHT22;28087;-33.874;151.240;2023-04-15T13:30:18;22.40;66.10
20795;DHT22;28087;-33.874;151.240;2023-04-15T13:32:54;22.40;66.10
20795;DHT22;28087;-33.874;151.240;2023-04-15T13:35:30;22.50;66.00
20795;DHT22;28087;-33.874;151.240;2023-04-15T13:38:07;22.50;66.20
20795;DHT22;28087;-33.874;151.240;2023-04-15T13:40:44;22.40;65.10
20795;DHT22;28087;-33.874;151.240;2023-04-15T13:43:19;22.40;65.40
20795;DHT22;28087;-33.874;151.240;2023-04-15T13:45:55;22.40;65.20
20795;DHT22;28087;-33.874;151.240;2023-04-15T13:48:31;22.40;65.40
20795;DHT22;28087;-33.874;151.240;2023-04-15T13:51:08;22.40;65.20
20795;DHT22;28087;-33.874;151.240;2023-04-15T13:53:45;22.50;65.10
20795;DHT22;28087;-33.874;151.240;2023-04-15T13:56:20;22.40;64.90
20795;DHT22;28087;-33.874;151.240;2023-04-15T13:58:55;22.40;65.00
20795;DHT22;28087;-33.874;151.240;2023-04-15T14:01:34;22.40;64.80
20795;DHT22;28087;-33.874;151.240;2023-04-15T14:04:10;22.40;65.10
20795;DHT22;28087;-33.874;151.240;2023-04-15T14:06:45;22.50;64.90
20795;DHT22;28087;-33.874;151.240;2023-04-15T14:09:23;22.50;64.10
20795;DHT22;28087;-33.874;151.240;2023-04-15T14:11:59;22.40;64.00
20795;DHT22;28087;-33.874;151.240;2023-04-15T14:14:34;22.30;64.10
20795;DHT22;28087;-33.874;151.240;2023-04-15T14:17:10;22.30;64.40
20795;DHT22;28087;-33.874;151.240;2023-04-15T14:19:46;22.40;64.30
20795;DHT22;28087;-33.874;151.240;2023-04-15T14:22:22;22.50;64.50
20795;DHT22;28087;-33.874;151.240;2023-04-15T14:25:01;22.40;65.30
20795;DHT22;28087;-33.874;151.240;2023-04-15T14:27:37;22.40;64.50
20795;DHT22;28087;-33.874;151.240;2023-04-15T14:30:13;22.40;64.70
20795;DHT22;28087;-33.874;151.240;2023-04-15T14:32:49;22.40;64.30
20795;DHT22;28087;-33.874;151.240;2023-04-15T14:35:24;22.40;64.90
20795;DHT22;28087;-33.874;151.240;2023-04-15T14:37:59;22.40;64.70
20795;DHT22;28087;-33.874;151.240;2023-04-15T14:40:36;22.40;64.20
20795;DHT22;28087;-33.874;151.240;2023-04-15T14:43:12;22.40;64.70
20795;DHT22;28087;-33.874;151.240;2023-04-15T14:45:49;22.40;65.00
20795;DHT22;28087;-33.874;151.240;2023-04-15T14:48:25;22.30;65.60
20795;DHT22;28087;-33.874;151.240;2023-04-15T14:51:00;22.40;65.90
20795;DHT22;28087;-33.874;151.240;2023-04-15T14:53:36;22.40;65.50
20795;DHT22;28087;-33.874;151.240;2023-04-15T14:56:13;22.50;65.50
20795;DHT22;28087;-33.874;151.240;2023-04-15T14:58:48;22.40;65.40
20795;DHT22;28087;-33.874;151.240;2023-04-15T15:01:24;22.30;65.40
20795;DHT22;28087;-33.874;151.240;2023-04-15T15:04:01;22.30;65.40
20795;DHT22;28087;-33.874;151.240;2023-04-15T15:06:36;22.40;65.50
20795;DHT22;28087;-33.874;151.240;2023-04-15T15:09:12;22.40;64.90
20795;DHT22;28087;-33.874;151.240;2023-04-15T15:11:49;22.40;64.90
20795;DHT22;28087;-33.874;151.240;2023-04-15T15:14:25;22.40;65.00
20795;DHT22;28087;-33.874;151.240;2023-04-15T15:17:00;22.40;64.30
20795;DHT22;28087;-33.874;151.240;2023-04-15T15:19:36;22.30;64.60
20795;DHT22;28087;-33.874;151.240;2023-04-15T15:22:14;22.30;64.40
20795;DHT22;28087;-33.874;151.240;2023-04-15T15:24:51;22.40;65.00
20795;DHT22;28087;-33.874;151.240;2023-04-15T15:27:33;22.30;65.10
20795;DHT22;28087;-33.874;151.240;2023-04-15T15:30:09;22.30;64.70
20795;DHT22;28087;-33.874;151.240;2023-04-15T15:32:44;22.30;65.00
20795;DHT22;28087;-33.874;151.240;2023-04-15T15:35:21;22.40;64.80
20795;DHT22;28087;-33.874;151.240;2023-04-15T15:37:58;22.30;64.70
20795;DHT22;28087;-33.874;151.240;2023-04-15T15:40:33;22.40;64.90
20795;DHT22;28087;-33.874;151.240;2023-04-15T15:43:10;22.40;64.70
20795;DHT22;28087;-33.874;151.240;2023-04-15T15:45:46;22.30;64.30
20795;DHT22;28087;-33.874;151.240;2023-04-15T15:48:23;22.40;64.50
20795;DHT22;28087;-33.874;151.240;2023-04-15T15:50:59;22.40;64.00
20795;DHT22;28087;-33.874;151.240;2023-04-15T15:53:35;22.40;63.90